sensor_id;sensor_type;location;lat;lon;timestamp;P1;durP1;ratioP1;P2;durP2;ratioP2
43086;SDS011;28708;52.224;6.924;2023-02-23T00:01:11;105.70;;;58.97;;
43086;SDS011;28708;52.224;6.924;2023-02-23T00:03:38;96.40;;;54.70;;
43086;SDS011;28708;52.224;6.924;2023-02-23T00:06:05;97.17;;;56.50;;
43086;SDS011;28708;52.224;6.924;2023-02-23T00:08:32;94.57;;;54.43;;
43086;SDS011;28708;52.224;6.924;2023-02-23T00:11:00;95.03;;;56.53;;
43086;SDS011;28708;52.224;6.924;2023-02-23T00:13:33;90.10;;;52.95;;
43086;SDS011;28708;52.224;6.924;2023-02-23T00:16:34;98.33;;;55.77;;
43086;SDS011;28708;52.224;6.924;2023-02-23T00:18:56;94.83;;;54.17;;
43086;SDS011;28708;52.224;6.924;2023-02-23T00:21:25;102.63;;;58.27;;
43086;SDS011;28708;52.224;6.924;2023-02-23T00:26:22;94.13;;;54.27;;
43086;SDS011;28708;52.224;6.924;2023-02-23T00:28:49;92.53;;;56.30;;
43086;SDS011;28708;52.224;6.924;2023-02-23T00:31:17;105.00;;;56.73;;
43086;SDS011;28708;52.224;6.924;2023-02-23T00:33:43;95.93;;;56.70;;
43086;SDS011;28708;52.224;6.924;2023-02-23T00:36:10;95.57;;;53.67;;
43086;SDS011;28708;52.224;6.924;2023-02-23T00:38:38;97.30;;;55.53;;
43086;SDS011;28708;52.224;6.924;2023-02-23T00:41:11;99.03;;;53.03;;
43086;SDS011;28708;52.224;6.924;2023-02-23T00:43:41;93.00;;;53.23;;
43086;SDS011;28708;52.224;6.924;2023-02-23T00:46:15;92.40;;;53.20;;
43086;SDS011;28708;52.224;6.924;2023-02-23T00:48:43;96.20;;;55.13;;
43086;SDS011;28708;52.224;6.924;2023-02-23T00:51:09;98.90;;;55.67;;
43086;SDS011;28708;52.224;6.924;2023-02-23T00:53:35;97.53;;;55.43;;
43086;SDS011;28708;52.224;6.924;2023-02-23T00:56:05;99.90;;;55.87;;
43086;SDS011;28708;52.224;6.924;2023-02-23T00:58:35;102.60;;;56.30;;
43086;SDS011;28708;52.224;6.924;2023-02-23T01:01:04;99.57;;;57.33;;
43086;SDS011;28708;52.224;6.924;2023-02-23T01:03:31;105.93;;;57.67;;
43086;SDS011;28708;52.224;6.924;2023-02-23T01:06:00;105.50;;;58.20;;
43086;SDS011;28708;52.224;6.924;2023-02-23T01:08:29;98.90;;;57.70;;
43086;SDS011;28708;52.224;6.924;2023-02-23T01:10:56;102.67;;;56.93;;
43086;SDS011;28708;52.224;6.924;2023-02-23T01:13:22;106.13;;;58.40;;
43086;SDS011;28708;52.224;6.924;2023-02-23T01:15:49;95.43;;;55.27;;
43086;SDS011;28708;52.224;6.924;2023-02-23T01:18:16;102.07;;;57.60;;
43086;SDS011;28708;52.224;6.924;2023-02-23T01:20:43;101.50;;;57.00;;
43086;SDS011;28708;52.224;6.924;2023-02-23T01:23:11;102.27;;;58.23;;
43086;SDS011;28708;52.224;6.924;2023-02-23T01:25:38;94.90;;;54.70;;
43086;SDS011;28708;52.224;6.924;2023-02-23T01:28:05;100.13;;;56.00;;
43086;SDS011;28708;52.224;6.924;2023-02-23T01:30:31;103.03;;;56.77;;
43086;SDS011;28708;52.224;6.924;2023-02-23T01:32:56;107.60;;;58.47;;
43086;SDS011;28708;52.224;6.924;2023-02-23T01:35:22;104.73;;;56.07;;
43086;SDS011;28708;52.224;6.924;2023-02-23T01:37:48;99.83;;;58.20;;
43086;SDS011;28708;52.224;6.924;2023-02-23T01:40:15;104.97;;;57.13;;
43086;SDS011;28708;52.224;6.924;2023-02-23T01:42:54;102.38;;;58.22;;
43086;SDS011;28708;52.224;6.924;2023-02-23T01:45:27;100.07;;;54.95;;
43086;SDS011;28708;52.224;6.924;2023-02-23T01:48:03;89.67;;;53.17;;
43086;SDS011;28708;52.224;6.924;2023-02-23T01:50:36;97.90;;;56.37;;
43086;SDS011;28708;52.224;6.924;2023-02-23T01:53:08;106.70;;;59.13;;
43086;SDS011;28708;52.224;6.924;2023-02-23T01:55:34;104.30;;;57.73;;
43086;SDS011;28708;52.224;6.924;2023-02-23T01:58:03;104.93;;;58.23;;
43086;SDS011;28708;52.224;6.924;2023-02-23T02:00:35;103.67;;;59.57;;
43086;SDS011;28708;52.224;6.924;2023-02-23T02:03:05;105.65;;;60.38;;
43086;SDS011;28708;52.224;6.924;2023-02-23T02:05:36;102.17;;;56.33;;
43086;SDS011;28708;52.224;6.924;2023-02-23T02:08:03;100.33;;;56.40;;
43086;SDS011;28708;52.224;6.924;2023-02-23T02:10:31;97.10;;;56.23;;
43086;SDS011;28708;52.224;6.924;2023-02-23T02:13:10;101.20;;;57.13;;
43086;SDS011;28708;52.224;6.924;2023-02-23T02:15:45;105.17;;;58.03;;
43086;SDS011;28708;52.224;6.924;2023-02-23T02:39:58;109.53;;;60.53;;
43086;SDS011;28708;52.224;6.924;2023-02-23T02:48:21;106.68;;;59.28;;
43086;SDS011;28708;52.224;6.924;2023-02-23T02:53:50;99.97;;;54.13;;
43086;SDS011;28708;52.224;6.924;2023-02-23T02:56:23;112.63;;;60.40;;
43086;SDS011;28708;52.224;6.924;2023-02-23T02:58:52;101.43;;;55.90;;
43086;SDS011;28708;52.224;6.924;2023-02-23T03:01:18;109.63;;;58.33;;
43086;SDS011;28708;52.224;6.924;2023-02-23T03:04:21;112.00;;;58.13;;
43086;SDS011;28708;52.224;6.924;2023-02-23T03:07:15;101.87;;;57.37;;
43086;SDS011;28708;52.224;6.924;2023-02-23T03:16:23;104.63;;;55.10;;
43086;SDS011;28708;52.224;6.924;2023-02-23T03:19:22;103.73;;;54.97;;
43086;SDS011;28708;52.224;6.924;2023-02-23T03:22:37;99.57;;;52.33;;
43086;SDS011;28708;52.224;6.924;2023-02-23T03:32:24;102.93;;;54.10;;
43086;SDS011;28708;52.224;6.924;2023-02-23T03:35:24;106.18;;;56.10;;
43086;SDS011;28708;52.224;6.924;2023-02-23T03:38:36;96.87;;;53.20;;
43086;SDS011;28708;52.224;6.924;2023-02-23T03:41:22;107.33;;;56.20;;
43086;SDS011;28708;52.224;6.924;2023-02-23T03:44:10;105.50;;;55.27;;
43086;SDS011;28708;52.224;6.924;2023-02-23T03:46:59;99.13;;;54.70;;
43086;SDS011;28708;52.224;6.924;2023-02-23T03:49:46;99.63;;;52.80;;
43086;SDS011;28708;52.224;6.924;2023-02-23T03:52:35;100.70;;;51.57;;
43086;SDS011;28708;52.224;6.924;2023-02-23T03:55:29;97.30;;;52.53;;
43086;SDS011;28708;52.224;6.924;2023-02-23T03:58:18;93.07;;;50.73;;
43086;SDS011;28708;52.224;6.924;2023-02-23T04:01:11;96.67;;;52.30;;
43086;SDS011;28708;52.224;6.924;2023-02-23T04:03:56;106.00;;;52.07;;
43086;SDS011;28708;52.224;6.924;2023-02-23T04:06:42;105.43;;;54.53;;
43086;SDS011;28708;52.224;6.924;2023-02-23T04:09:29;103.53;;;52.57;;
43086;SDS011;28708;52.224;6.924;2023-02-23T04:12:16;102.10;;;51.57;;
43086;SDS011;28708;52.224;6.924;2023-02-23T04:15:19;109.30;;;54.80;;
43086;SDS011;28708;52.224;6.924;2023-02-23T04:17:54;98.17;;;51.97;;
43086;SDS011;28708;52.224;6.924;2023-02-23T04:20:20;106.73;;;54.03;;
43086;SDS011;28708;52.224;6.924;2023-02-23T04:22:47;103.93;;;53.30;;
43086;SDS011;28708;52.224;6.924;2023-02-23T04:25:13;104.63;;;53.23;;
43086;SDS011;28708;52.224;6.924;2023-02-23T04:27:40;101.70;;;53.20;;
43086;SDS011;28708;52.224;6.924;2023-02-23T04:30:06;101.47;;;53.27;;
43086;SDS011;28708;52.224;6.924;2023-02-23T04:32:34;103.87;;;53.87;;
43086;SDS011;28708;52.224;6.924;2023-02-23T04:35:00;100.03;;;52.30;;
43086;SDS011;28708;52.224;6.924;2023-02-23T04:37:25;105.77;;;53.87;;
43086;SDS011;28708;52.224;6.924;2023-02-23T04:39:51;104.87;;;53.73;;
43086;SDS011;28708;52.224;6.924;2023-02-23T04:42:17;100.83;;;53.63;;
43086;SDS011;28708;52.224;6.924;2023-02-23T04:44:43;106.73;;;54.27;;
43086;SDS011;28708;52.224;6.924;2023-02-23T04:47:09;107.47;;;53.60;;
43086;SDS011;28708;52.224;6.924;2023-02-23T04:49:35;100.20;;;52.17;;
43086;SDS011;28708;52.224;6.924;2023-02-23T04:52:02;101.63;;;49.97;;
43086;SDS011;28708;52.224;6.924;2023-02-23T04:54:27;106.93;;;50.53;;
43086;SDS011;28708;52.224;6.924;2023-02-23T04:56:53;104.07;;;51.40;;
43086;SDS011;28708;52.224;6.924;2023-02-23T04:59:19;107.63;;;51.20;;
43086;SDS011;28708;52.224;6.924;2023-02-23T05:01:44;106.10;;;51.90;;
43086;SDS011;28708;52.224;6.924;2023-02-23T05:04:10;108.73;;;50.30;;
43086;SDS011;28708;52.224;6.924;2023-02-23T05:06:35;106.80;;;50.50;;
43086;SDS011;28708;52.224;6.924;2023-02-23T05:09:02;102.27;;;48.87;;
43086;SDS011;28708;52.224;6.924;2023-02-23T05:11:28;104.13;;;48.13;;
43086;SDS011;28708;52.224;6.924;2023-02-23T05:13:54;110.47;;;49.07;;
43086;SDS011;28708;52.224;6.924;2023-02-23T05:16:20;108.77;;;48.83;;
43086;SDS011;28708;52.224;6.924;2023-02-23T05:18:46;103.20;;;47.50;;
43086;SDS011;28708;52.224;6.924;2023-02-23T05:21:11;101.60;;;46.43;;
43086;SDS011;28708;52.224;6.924;2023-02-23T05:23:37;101.67;;;47.03;;
43086;SDS011;28708;52.224;6.924;2023-02-23T05:26:07;105.73;;;48.63;;
43086;SDS011;28708;52.224;6.924;2023-02-23T05:28:35;106.73;;;47.30;;
43086;SDS011;28708;52.224;6.924;2023-02-23T05:31:02;99.97;;;45.60;;
43086;SDS011;28708;52.224;6.924;2023-02-23T05:33:29;107.70;;;47.33;;
43086;SDS011;28708;52.224;6.924;2023-02-23T05:35:56;108.50;;;47.17;;
43086;SDS011;28708;52.224;6.924;2023-02-23T05:38:23;104.17;;;48.47;;
43086;SDS011;28708;52.224;6.924;2023-02-23T05:40:49;116.37;;;49.70;;
43086;SDS011;28708;52.224;6.924;2023-02-23T05:43:14;101.07;;;48.10;;
43086;SDS011;28708;52.224;6.924;2023-02-23T05:45:40;101.60;;;48.70;;
43086;SDS011;28708;52.224;6.924;2023-02-23T05:48:07;105.80;;;49.10;;
43086;SDS011;28708;52.224;6.924;2023-02-23T05:50:34;111.03;;;49.63;;
43086;SDS011;28708;52.224;6.924;2023-02-23T05:53:00;106.10;;;49.03;;
43086;SDS011;28708;52.224;6.924;2023-02-23T05:55:26;107.30;;;47.97;;
43086;SDS011;28708;52.224;6.924;2023-02-23T05:57:52;109.90;;;50.07;;
43086;SDS011;28708;52.224;6.924;2023-02-23T06:00:18;105.53;;;48.80;;
43086;SDS011;28708;52.224;6.924;2023-02-23T06:02:44;252.10;;;152.67;;
43086;SDS011;28708;52.224;6.924;2023-02-23T06:05:10;121.90;;;62.20;;
43086;SDS011;28708;52.224;6.924;2023-02-23T06:07:37;111.97;;;50.83;;
43086;SDS011;28708;52.224;6.924;2023-02-23T06:10:03;115.10;;;51.47;;
43086;SDS011;28708;52.224;6.924;2023-02-23T06:12:30;113.07;;;52.43;;
43086;SDS011;28708;52.224;6.924;2023-02-23T06:14:55;118.30;;;51.97;;
43086;SDS011;28708;52.224;6.924;2023-02-23T06:17:21;114.50;;;51.57;;
43086;SDS011;28708;52.224;6.924;2023-02-23T06:19:47;118.37;;;53.57;;
43086;SDS011;28708;52.224;6.924;2023-02-23T06:22:13;109.97;;;48.57;;
43086;SDS011;28708;52.224;6.924;2023-02-23T06:24:41;125.57;;;53.53;;
43086;SDS011;28708;52.224;6.924;2023-02-23T06:27:07;115.97;;;51.47;;
43086;SDS011;28708;52.224;6.924;2023-02-23T06:29:33;124.73;;;52.63;;
43086;SDS011;28708;52.224;6.924;2023-02-23T06:31:59;125.30;;;52.77;;
43086;SDS011;28708;52.224;6.924;2023-02-23T06:34:24;124.37;;;53.70;;
43086;SDS011;28708;52.224;6.924;2023-02-23T06:36:50;120.23;;;52.50;;
43086;SDS011;28708;52.224;6.924;2023-02-23T06:39:16;123.73;;;51.90;;
43086;SDS011;28708;52.224;6.924;2023-02-23T06:41:41;118.03;;;48.73;;
43086;SDS011;28708;52.224;6.924;2023-02-23T06:44:07;125.47;;;49.80;;
43086;SDS011;28708;52.224;6.924;2023-02-23T06:46:32;123.13;;;50.33;;
43086;SDS011;28708;52.224;6.924;2023-02-23T06:48:59;122.30;;;47.40;;
43086;SDS011;28708;52.224;6.924;2023-02-23T06:51:25;128.33;;;52.13;;
43086;SDS011;28708;52.224;6.924;2023-02-23T06:53:50;129.33;;;50.83;;
43086;SDS011;28708;52.224;6.924;2023-02-23T06:56:19;129.23;;;51.07;;
43086;SDS011;28708;52.224;6.924;2023-02-23T06:58:45;123.73;;;50.70;;
43086;SDS011;28708;52.224;6.924;2023-02-23T07:01:12;119.40;;;49.90;;
43086;SDS011;28708;52.224;6.924;2023-02-23T07:03:37;116.93;;;46.73;;
43086;SDS011;28708;52.224;6.924;2023-02-23T07:06:03;116.37;;;47.40;;
43086;SDS011;28708;52.224;6.924;2023-02-23T07:08:30;121.97;;;48.40;;
43086;SDS011;28708;52.224;6.924;2023-02-23T07:11:03;115.77;;;47.73;;
43086;SDS011;28708;52.224;6.924;2023-02-23T07:13:32;113.73;;;45.97;;
43086;SDS011;28708;52.224;6.924;2023-02-23T07:15:58;114.80;;;45.57;;
43086;SDS011;28708;52.224;6.924;2023-02-23T07:18:24;113.93;;;44.97;;
43086;SDS011;28708;52.224;6.924;2023-02-23T07:20:49;114.43;;;43.40;;
43086;SDS011;28708;52.224;6.924;2023-02-23T07:23:18;111.57;;;41.27;;
43086;SDS011;28708;52.224;6.924;2023-02-23T07:25:43;109.83;;;42.13;;
43086;SDS011;28708;52.224;6.924;2023-02-23T07:28:09;109.90;;;42.63;;
43086;SDS011;28708;52.224;6.924;2023-02-23T07:30:38;111.70;;;40.40;;
43086;SDS011;28708;52.224;6.924;2023-02-23T07:33:04;109.87;;;39.37;;
43086;SDS011;28708;52.224;6.924;2023-02-23T07:35:30;111.47;;;38.07;;
43086;SDS011;28708;52.224;6.924;2023-02-23T07:37:55;96.73;;;37.83;;
43086;SDS011;28708;52.224;6.924;2023-02-23T07:40:21;90.70;;;36.27;;
43086;SDS011;28708;52.224;6.924;2023-02-23T07:42:47;91.53;;;36.93;;
43086;SDS011;28708;52.224;6.924;2023-02-23T07:45:12;93.20;;;37.67;;
43086;SDS011;28708;52.224;6.924;2023-02-23T07:47:38;90.13;;;39.13;;
43086;SDS011;28708;52.224;6.924;2023-02-23T07:50:04;88.43;;;38.43;;
43086;SDS011;28708;52.224;6.924;2023-02-23T07:52:37;87.72;;;37.72;;
43086;SDS011;28708;52.224;6.924;2023-02-23T07:55:05;88.47;;;40.30;;
43086;SDS011;28708;52.224;6.924;2023-02-23T07:57:32;89.03;;;39.10;;
43086;SDS011;28708;52.224;6.924;2023-02-23T07:59:58;88.30;;;39.93;;
43086;SDS011;28708;52.224;6.924;2023-02-23T08:02:24;85.57;;;38.63;;
43086;SDS011;28708;52.224;6.924;2023-02-23T08:04:50;84.90;;;38.40;;
43086;SDS011;28708;52.224;6.924;2023-02-23T08:07:18;82.87;;;38.30;;
43086;SDS011;28708;52.224;6.924;2023-02-23T08:09:44;86.83;;;42.37;;
43086;SDS011;28708;52.224;6.924;2023-02-23T08:12:10;79.93;;;38.10;;
43086;SDS011;28708;52.224;6.924;2023-02-23T08:14:35;84.50;;;39.50;;
43086;SDS011;28708;52.224;6.924;2023-02-23T08:17:01;88.80;;;39.33;;
43086;SDS011;28708;52.224;6.924;2023-02-23T08:19:27;78.57;;;36.47;;
43086;SDS011;28708;52.224;6.924;2023-02-23T08:21:53;81.23;;;36.97;;
43086;SDS011;28708;52.224;6.924;2023-02-23T08:24:20;83.40;;;37.67;;
43086;SDS011;28708;52.224;6.924;2023-02-23T08:26:46;76.83;;;36.77;;
43086;SDS011;28708;52.224;6.924;2023-02-23T08:29:13;77.13;;;36.60;;
43086;SDS011;28708;52.224;6.924;2023-02-23T08:31:39;74.10;;;35.10;;
43086;SDS011;28708;52.224;6.924;2023-02-23T08:34:05;68.93;;;33.40;;
43086;SDS011;28708;52.224;6.924;2023-02-23T08:36:31;70.20;;;33.23;;
43086;SDS011;28708;52.224;6.924;2023-02-23T08:38:56;72.67;;;34.97;;
43086;SDS011;28708;52.224;6.924;2023-02-23T08:41:24;63.00;;;32.50;;
43086;SDS011;28708;52.224;6.924;2023-02-23T08:43:50;69.53;;;33.57;;
43086;SDS011;28708;52.224;6.924;2023-02-23T08:46:15;76.23;;;33.87;;
43086;SDS011;28708;52.224;6.924;2023-02-23T08:48:44;73.83;;;34.87;;
43086;SDS011;28708;52.224;6.924;2023-02-23T08:51:11;71.73;;;34.23;;
43086;SDS011;28708;52.224;6.924;2023-02-23T08:53:38;69.20;;;33.70;;
43086;SDS011;28708;52.224;6.924;2023-02-23T08:56:05;75.37;;;34.47;;
43086;SDS011;28708;52.224;6.924;2023-02-23T08:58:32;80.10;;;35.67;;
43086;SDS011;28708;52.224;6.924;2023-02-23T09:00:58;89.40;;;38.40;;
43086;SDS011;28708;52.224;6.924;2023-02-23T09:03:25;84.53;;;37.43;;
43086;SDS011;28708;52.224;6.924;2023-02-23T09:05:52;84.63;;;39.47;;
43086;SDS011;28708;52.224;6.924;2023-02-23T09:08:19;82.00;;;37.63;;
43086;SDS011;28708;52.224;6.924;2023-02-23T09:10:45;90.83;;;39.80;;
43086;SDS011;28708;52.224;6.924;2023-02-23T09:13:11;83.47;;;40.13;;
43086;SDS011;28708;52.224;6.924;2023-02-23T09:15:37;86.73;;;36.97;;
43086;SDS011;28708;52.224;6.924;2023-02-23T09:18:04;85.93;;;37.90;;
43086;SDS011;28708;52.224;6.924;2023-02-23T09:20:31;76.27;;;37.80;;
43086;SDS011;28708;52.224;6.924;2023-02-23T09:22:56;74.63;;;35.67;;
43086;SDS011;28708;52.224;6.924;2023-02-23T09:25:22;70.37;;;35.63;;
43086;SDS011;28708;52.224;6.924;2023-02-23T09:27:52;70.50;;;34.97;;
43086;SDS011;28708;52.224;6.924;2023-02-23T09:30:20;74.13;;;34.93;;
43086;SDS011;28708;52.224;6.924;2023-02-23T09:32:46;70.73;;;34.23;;
43086;SDS011;28708;52.224;6.924;2023-02-23T09:35:13;75.23;;;35.60;;
43086;SDS011;28708;52.224;6.924;2023-02-23T09:37:43;74.47;;;36.60;;
43086;SDS011;28708;52.224;6.924;2023-02-23T09:40:21;75.00;;;37.40;;
43086;SDS011;28708;52.224;6.924;2023-02-23T09:46:00;73.30;;;35.20;;
43086;SDS011;28708;52.224;6.924;2023-02-23T09:48:46;77.57;;;36.87;;
43086;SDS011;28708;52.224;6.924;2023-02-23T09:51:16;77.63;;;37.83;;
43086;SDS011;28708;52.224;6.924;2023-02-23T09:53:47;89.47;;;41.10;;
43086;SDS011;28708;52.224;6.924;2023-02-23T09:59:18;69.77;;;34.30;;
43086;SDS011;28708;52.224;6.924;2023-02-23T10:01:51;74.30;;;35.40;;
43086;SDS011;28708;52.224;6.924;2023-02-23T10:04:25;69.80;;;35.03;;
43086;SDS011;28708;52.224;6.924;2023-02-23T10:07:13;71.20;;;33.20;;
43086;SDS011;28708;52.224;6.924;2023-02-23T10:15:37;75.97;;;36.33;;
43086;SDS011;28708;52.224;6.924;2023-02-23T10:18:17;73.63;;;35.07;;
43086;SDS011;28708;52.224;6.924;2023-02-23T10:21:33;67.53;;;33.10;;
43086;SDS011;28708;52.224;6.924;2023-02-23T10:23:40;66.87;;;32.17;;
43086;SDS011;28708;52.224;6.924;2023-02-23T10:26:21;61.27;;;31.73;;
43086;SDS011;28708;52.224;6.924;2023-02-23T10:28:50;58.60;;;29.83;;
43086;SDS011;28708;52.224;6.924;2023-02-23T10:31:23;63.30;;;31.40;;
43086;SDS011;28708;52.224;6.924;2023-02-23T10:34:12;62.53;;;30.35;;
43086;SDS011;28708;52.224;6.924;2023-02-23T10:36:49;57.80;;;29.07;;
43086;SDS011;28708;52.224;6.924;2023-02-23T10:39:21;60.13;;;29.90;;
43086;SDS011;28708;52.224;6.924;2023-02-23T10:41:47;61.40;;;30.47;;
43086;SDS011;28708;52.224;6.924;2023-02-23T10:44:20;56.83;;;28.10;;
43086;SDS011;28708;52.224;6.924;2023-02-23T10:46:58;55.90;;;28.63;;
43086;SDS011;28708;52.224;6.924;2023-02-23T10:49:40;51.77;;;27.90;;
43086;SDS011;28708;52.224;6.924;2023-02-23T10:52:13;53.63;;;27.47;;
43086;SDS011;28708;52.224;6.924;2023-02-23T10:54:48;58.77;;;30.13;;
43086;SDS011;28708;52.224;6.924;2023-02-23T10:57:19;50.93;;;26.77;;
43086;SDS011;28708;52.224;6.924;2023-02-23T11:02:28;55.40;;;27.53;;
43086;SDS011;28708;52.224;6.924;2023-02-23T11:04:55;54.70;;;27.47;;
43086;SDS011;28708;52.224;6.924;2023-02-23T11:07:23;57.40;;;30.10;;
43086;SDS011;28708;52.224;6.924;2023-02-23T11:09:54;52.13;;;26.27;;
43086;SDS011;28708;52.224;6.924;2023-02-23T11:17:57;47.23;;;24.30;;
43086;SDS011;28708;52.224;6.924;2023-02-23T11:20:42;54.07;;;26.53;;
43086;SDS011;28708;52.224;6.924;2023-02-23T11:23:11;54.40;;;28.43;;
43086;SDS011;28708;52.224;6.924;2023-02-23T11:25:47;56.67;;;28.37;;
43086;SDS011;28708;52.224;6.924;2023-02-23T11:29:21;49.40;;;26.33;;
43086;SDS011;28708;52.224;6.924;2023-02-23T11:31:19;50.40;;;25.08;;
43086;SDS011;28708;52.224;6.924;2023-02-23T11:33:50;48.97;;;24.13;;
43086;SDS011;28708;52.224;6.924;2023-02-23T11:36:29;48.57;;;24.57;;
43086;SDS011;28708;52.224;6.924;2023-02-23T11:41:41;56.90;;;26.03;;
43086;SDS011;28708;52.224;6.924;2023-02-23T11:44:08;52.93;;;26.10;;
43086;SDS011;28708;52.224;6.924;2023-02-23T11:46:46;44.67;;;23.45;;
43086;SDS011;28708;52.224;6.924;2023-02-23T11:49:22;55.73;;;27.90;;
43086;SDS011;28708;52.224;6.924;2023-02-23T11:51:57;51.17;;;26.13;;
43086;SDS011;28708;52.224;6.924;2023-02-23T11:54:27;48.20;;;24.77;;
43086;SDS011;28708;52.224;6.924;2023-02-23T11:56:55;52.83;;;26.17;;
43086;SDS011;28708;52.224;6.924;2023-02-23T11:59:35;49.83;;;24.83;;
43086;SDS011;28708;52.224;6.924;2023-02-23T12:05:38;51.80;;;23.23;;
43086;SDS011;28708;52.224;6.924;2023-02-23T12:10:20;55.03;;;25.10;;
43086;SDS011;28708;52.224;6.924;2023-02-23T12:15:57;53.97;;;24.00;;
43086;SDS011;28708;52.224;6.924;2023-02-23T12:21:47;55.93;;;25.87;;
43086;SDS011;28708;52.224;6.924;2023-02-23T12:27:28;55.03;;;24.93;;
43086;SDS011;28708;52.224;6.924;2023-02-23T12:30:14;54.93;;;24.93;;
43086;SDS011;28708;52.224;6.924;2023-02-23T12:32:47;57.17;;;25.00;;
43086;SDS011;28708;52.224;6.924;2023-02-23T12:41:13;55.87;;;25.90;;
43086;SDS011;28708;52.224;6.924;2023-02-23T12:43:52;52.93;;;25.07;;
43086;SDS011;28708;52.224;6.924;2023-02-23T12:46:25;51.97;;;23.77;;
43086;SDS011;28708;52.224;6.924;2023-02-23T12:49:15;62.17;;;26.60;;
43086;SDS011;28708;52.224;6.924;2023-02-23T12:51:50;55.20;;;26.27;;
43086;SDS011;28708;52.224;6.924;2023-02-23T12:54:32;50.80;;;25.27;;
43086;SDS011;28708;52.224;6.924;2023-02-23T12:57:08;52.40;;;26.93;;
43086;SDS011;28708;52.224;6.924;2023-02-23T12:59:46;51.37;;;25.20;;
43086;SDS011;28708;52.224;6.924;2023-02-23T13:10:36;56.93;;;26.30;;
43086;SDS011;28708;52.224;6.924;2023-02-23T13:16:08;54.27;;;24.47;;
43086;SDS011;28708;52.224;6.924;2023-02-23T13:21:21;50.07;;;25.00;;
43086;SDS011;28708;52.224;6.924;2023-02-23T13:24:16;51.63;;;24.57;;
43086;SDS011;28708;52.224;6.924;2023-02-23T13:29:44;52.70;;;25.63;;
43086;SDS011;28708;52.224;6.924;2023-02-23T13:32:14;55.50;;;24.10;;
43086;SDS011;28708;52.224;6.924;2023-02-23T13:34:58;55.07;;;26.13;;
43086;SDS011;28708;52.224;6.924;2023-02-23T13:51:34;53.37;;;27.10;;
43086;SDS011;28708;52.224;6.924;2023-02-23T13:56:43;55.33;;;26.30;;
43086;SDS011;28708;52.224;6.924;2023-02-23T13:59:55;60.33;;;26.53;;
43086;SDS011;28708;52.224;6.924;2023-02-23T14:02:18;54.03;;;26.17;;
43086;SDS011;28708;52.224;6.924;2023-02-23T14:05:00;55.97;;;25.70;;
43086;SDS011;28708;52.224;6.924;2023-02-23T14:08:03;56.93;;;26.03;;
43086;SDS011;28708;52.224;6.924;2023-02-23T14:10:36;53.03;;;25.37;;
43086;SDS011;28708;52.224;6.924;2023-02-23T14:18:32;52.70;;;24.57;;
43086;SDS011;28708;52.224;6.924;2023-02-23T14:21:12;48.20;;;23.57;;
43086;SDS011;28708;52.224;6.924;2023-02-23T14:31:59;50.37;;;23.50;;
43086;SDS011;28708;52.224;6.924;2023-02-23T14:34:58;49.60;;;23.20;;
43086;SDS011;28708;52.224;6.924;2023-02-23T14:42:37;55.63;;;24.20;;
43086;SDS011;28708;52.224;6.924;2023-02-23T14:45:06;52.20;;;24.83;;
43086;SDS011;28708;52.224;6.924;2023-02-23T14:47:45;50.33;;;22.43;;
43086;SDS011;28708;52.224;6.924;2023-02-23T14:50:16;55.67;;;24.93;;
43086;SDS011;28708;52.224;6.924;2023-02-23T14:52:48;51.53;;;22.83;;
43086;SDS011;28708;52.224;6.924;2023-02-23T14:57:51;55.47;;;23.80;;
43086;SDS011;28708;52.224;6.924;2023-02-23T15:03:05;47.27;;;21.83;;
43086;SDS011;28708;52.224;6.924;2023-02-23T15:05:43;51.77;;;22.57;;
43086;SDS011;28708;52.224;6.924;2023-02-23T15:08:19;54.40;;;21.97;;
43086;SDS011;28708;52.224;6.924;2023-02-23T15:10:48;49.30;;;21.90;;
43086;SDS011;28708;52.224;6.924;2023-02-23T15:13:29;48.70;;;21.40;;
43086;SDS011;28708;52.224;6.924;2023-02-23T15:16:02;51.40;;;22.17;;
43086;SDS011;28708;52.224;6.924;2023-02-23T15:18:33;49.57;;;21.63;;
43086;SDS011;28708;52.224;6.924;2023-02-23T15:21:08;57.80;;;23.23;;
43086;SDS011;28708;52.224;6.924;2023-02-23T15:23:47;53.20;;;22.07;;
43086;SDS011;28708;52.224;6.924;2023-02-23T15:26:23;49.90;;;21.03;;
43086;SDS011;28708;52.224;6.924;2023-02-23T15:29:06;51.40;;;22.93;;
43086;SDS011;28708;52.224;6.924;2023-02-23T15:31:39;55.10;;;23.70;;
43086;SDS011;28708;52.224;6.924;2023-02-23T15:34:14;54.20;;;22.37;;
43086;SDS011;28708;52.224;6.924;2023-02-23T15:36:44;57.65;;;24.08;;
43086;SDS011;28708;52.224;6.924;2023-02-23T15:39:14;55.10;;;23.27;;
43086;SDS011;28708;52.224;6.924;2023-02-23T15:41:44;51.27;;;21.93;;
43086;SDS011;28708;52.224;6.924;2023-02-23T15:44:15;52.53;;;22.23;;
43086;SDS011;28708;52.224;6.924;2023-02-23T15:46:49;57.37;;;23.83;;
43086;SDS011;28708;52.224;6.924;2023-02-23T15:49:21;70.77;;;24.80;;
43086;SDS011;28708;52.224;6.924;2023-02-23T15:51:50;69.47;;;25.60;;
43086;SDS011;28708;52.224;6.924;2023-02-23T15:54:22;68.17;;;24.70;;
43086;SDS011;28708;52.224;6.924;2023-02-23T15:56:54;67.32;;;25.63;;
43086;SDS011;28708;52.224;6.924;2023-02-23T15:59:25;68.37;;;25.53;;
43086;SDS011;28708;52.224;6.924;2023-02-23T16:01:56;62.87;;;24.40;;
43086;SDS011;28708;52.224;6.924;2023-02-23T16:04:30;74.07;;;25.57;;
43086;SDS011;28708;52.224;6.924;2023-02-23T16:09:52;68.57;;;27.07;;
43086;SDS011;28708;52.224;6.924;2023-02-23T16:12:30;77.47;;;27.50;;
43086;SDS011;28708;52.224;6.924;2023-02-23T16:15:00;69.03;;;25.50;;
43086;SDS011;28708;52.224;6.924;2023-02-23T16:17:51;75.07;;;26.75;;
43086;SDS011;28708;52.224;6.924;2023-02-23T16:23:33;73.37;;;28.03;;
43086;SDS011;28708;52.224;6.924;2023-02-23T16:26:19;71.90;;;26.38;;
43086;SDS011;28708;52.224;6.924;2023-02-23T16:28:52;74.77;;;27.00;;
43086;SDS011;28708;52.224;6.924;2023-02-23T16:31:25;86.60;;;30.27;;
43086;SDS011;28708;52.224;6.924;2023-02-23T16:34:23;75.30;;;28.17;;
43086;SDS011;28708;52.224;6.924;2023-02-23T16:36:56;74.40;;;27.13;;
43086;SDS011;28708;52.224;6.924;2023-02-23T16:39:23;71.20;;;26.03;;
43086;SDS011;28708;52.224;6.924;2023-02-23T16:41:53;79.10;;;29.38;;
43086;SDS011;28708;52.224;6.924;2023-02-23T16:44:22;78.45;;;28.10;;
43086;SDS011;28708;52.224;6.924;2023-02-23T16:46:55;69.30;;;26.77;;
43086;SDS011;28708;52.224;6.924;2023-02-23T16:49:27;76.80;;;28.47;;
43086;SDS011;28708;52.224;6.924;2023-02-23T16:51:56;70.72;;;25.90;;
43086;SDS011;28708;52.224;6.924;2023-02-23T16:54:22;72.43;;;26.53;;
43086;SDS011;28708;52.224;6.924;2023-02-23T16:56:49;69.33;;;26.77;;
43086;SDS011;28708;52.224;6.924;2023-02-23T16:59:19;78.00;;;26.07;;
43086;SDS011;28708;52.224;6.924;2023-02-23T17:01:46;70.43;;;26.63;;
43086;SDS011;28708;52.224;6.924;2023-02-23T17:04:14;75.90;;;27.77;;
43086;SDS011;28708;52.224;6.924;2023-02-23T17:06:41;76.77;;;28.27;;
43086;SDS011;28708;52.224;6.924;2023-02-23T17:09:10;77.47;;;27.17;;
43086;SDS011;28708;52.224;6.924;2023-02-23T17:11:36;71.50;;;24.63;;
43086;SDS011;28708;52.224;6.924;2023-02-23T17:14:04;72.57;;;27.33;;
43086;SDS011;28708;52.224;6.924;2023-02-23T17:16:29;74.50;;;27.17;;